Terminal Aerodrome Forecast
Issued by NWS Charleston, WV

Current Version | Previous Version | Graphics & Text | Print | Product List | Glossary On
Versions: 1 2 3 4 5 6 7 8 9 10 11 12 13 14 15 16 17 18 19 20 21 22 23 24 25 26 27 28 29 30 31 32 33 34
511
FTUS41 KRLX 270105 AAA
TAFPKB
TAF AMD
KPKB 270105Z 2701/2724 00000KT 5SM BR BKN090
      TEMPO 2701/2705 6SM BR
     FM271000 00000KT 2SM BR BKN070
     FM271300 00000KT 4SM BR BKN060
     FM271400 00000KT P6SM BKN060=

USA.gov is the U.S. government's official web portal to all federal, state and local government web resources and services.